sensor_id;sensor_type;location;lat;lon;timestamp;P1;durP1;ratioP1;P2;durP2;ratioP2
1701;SDS011;848;48.354;10.064;2022-11-20T00:01:28;8.50;;;3.10;;
1701;SDS011;848;48.354;10.064;2022-11-20T00:03:56;10.00;;;3.35;;
1701;SDS011;848;48.354;10.064;2022-11-20T00:06:24;8.13;;;2.50;;
1701;SDS011;848;48.354;10.064;2022-11-20T00:08:53;8.50;;;3.00;;
1701;SDS011;848;48.354;10.064;2022-11-20T00:11:22;10.10;;;2.80;;
1701;SDS011;848;48.354;10.064;2022-11-20T00:13:51;8.80;;;2.72;;
1701;SDS011;848;48.354;10.064;2022-11-20T00:16:20;9.93;;;2.90;;
1701;SDS011;848;48.354;10.064;2022-11-20T00:18:50;9.02;;;3.22;;
1701;SDS011;848;48.354;10.064;2022-11-20T00:21:18;7.72;;;2.75;;
1701;SDS011;848;48.354;10.064;2022-11-20T00:23:47;8.50;;;3.15;;
1701;SDS011;848;48.354;10.064;2022-11-20T00:26:15;9.15;;;2.90;;
1701;SDS011;848;48.354;10.064;2022-11-20T00:28:44;10.68;;;3.15;;
1701;SDS011;848;48.354;10.064;2022-11-20T00:31:15;8.60;;;2.67;;
1701;SDS011;848;48.354;10.064;2022-11-20T00:33:43;8.52;;;2.75;;
1701;SDS011;848;48.354;10.064;2022-11-20T00:36:16;9.02;;;3.25;;
1701;SDS011;848;48.354;10.064;2022-11-20T00:38:44;8.68;;;2.80;;
1701;SDS011;848;48.354;10.064;2022-11-20T00:41:12;9.70;;;3.08;;
1701;SDS011;848;48.354;10.064;2022-11-20T00:43:40;10.40;;;3.38;;
1701;SDS011;848;48.354;10.064;2022-11-20T00:46:09;9.43;;;3.00;;
1701;SDS011;848;48.354;10.064;2022-11-20T00:48:39;8.82;;;2.97;;
1701;SDS011;848;48.354;10.064;2022-11-20T00:51:06;9.05;;;3.30;;
1701;SDS011;848;48.354;10.064;2022-11-20T00:53:34;8.00;;;2.65;;
1701;SDS011;848;48.354;10.064;2022-11-20T00:56:02;10.88;;;3.15;;
1701;SDS011;848;48.354;10.064;2022-11-20T00:58:30;8.80;;;2.85;;
1701;SDS011;848;48.354;10.064;2022-11-20T01:01:00;8.45;;;3.00;;
1701;SDS011;848;48.354;10.064;2022-11-20T01:03:27;9.13;;;3.03;;
1701;SDS011;848;48.354;10.064;2022-11-20T01:05:59;9.07;;;3.25;;
1701;SDS011;848;48.354;10.064;2022-11-20T01:08:29;9.70;;;2.80;;
1701;SDS011;848;48.354;10.064;2022-11-20T01:10:59;9.02;;;3.28;;
1701;SDS011;848;48.354;10.064;2022-11-20T01:13:27;9.95;;;3.58;;
1701;SDS011;848;48.354;10.064;2022-11-20T01:16:04;9.85;;;3.28;;
1701;SDS011;848;48.354;10.064;2022-11-20T01:18:32;8.15;;;2.65;;
1701;SDS011;848;48.354;10.064;2022-11-20T01:21:00;8.77;;;2.88;;
1701;SDS011;848;48.354;10.064;2022-11-20T01:23:30;9.55;;;3.35;;
1701;SDS011;848;48.354;10.064;2022-11-20T01:26:00;9.48;;;3.38;;
1701;SDS011;848;48.354;10.064;2022-11-20T01:28:30;8.98;;;2.88;;
1701;SDS011;848;48.354;10.064;2022-11-20T01:30:57;8.02;;;2.55;;
1701;SDS011;848;48.354;10.064;2022-11-20T01:33:24;8.60;;;3.08;;
1701;SDS011;848;48.354;10.064;2022-11-20T01:35:52;10.05;;;3.08;;
1701;SDS011;848;48.354;10.064;2022-11-20T01:38:19;10.18;;;2.72;;
1701;SDS011;848;48.354;10.064;2022-11-20T01:40:53;11.35;;;3.10;;
1701;SDS011;848;48.354;10.064;2022-11-20T01:43:23;8.18;;;3.00;;
1701;SDS011;848;48.354;10.064;2022-11-20T01:45:58;9.38;;;2.70;;
1701;SDS011;848;48.354;10.064;2022-11-20T01:48:32;9.07;;;2.75;;
1701;SDS011;848;48.354;10.064;2022-11-20T01:51:02;7.30;;;2.10;;
1701;SDS011;848;48.354;10.064;2022-11-20T01:53:32;11.70;;;2.65;;
1701;SDS011;848;48.354;10.064;2022-11-20T01:56:03;9.07;;;2.92;;
1701;SDS011;848;48.354;10.064;2022-11-20T01:58:36;7.60;;;2.40;;
1701;SDS011;848;48.354;10.064;2022-11-20T02:01:08;8.18;;;2.83;;
1701;SDS011;848;48.354;10.064;2022-11-20T02:03:35;8.13;;;2.83;;
1701;SDS011;848;48.354;10.064;2022-11-20T02:06:04;8.45;;;2.50;;
1701;SDS011;848;48.354;10.064;2022-11-20T02:08:36;7.85;;;2.65;;
1701;SDS011;848;48.354;10.064;2022-11-20T02:11:04;8.55;;;2.92;;
1701;SDS011;848;48.354;10.064;2022-11-20T02:13:31;8.45;;;2.70;;
1701;SDS011;848;48.354;10.064;2022-11-20T02:16:13;8.38;;;2.80;;
1701;SDS011;848;48.354;10.064;2022-11-20T02:18:42;8.20;;;2.65;;
1701;SDS011;848;48.354;10.064;2022-11-20T02:21:13;9.98;;;3.08;;
1701;SDS011;848;48.354;10.064;2022-11-20T02:23:54;7.30;;;2.55;;
1701;SDS011;848;48.354;10.064;2022-11-20T02:26:26;8.32;;;3.15;;
1701;SDS011;848;48.354;10.064;2022-11-20T02:28:55;7.85;;;2.60;;
1701;SDS011;848;48.354;10.064;2022-11-20T02:31:24;8.55;;;2.95;;
1701;SDS011;848;48.354;10.064;2022-11-20T02:33:54;7.13;;;2.33;;
1701;SDS011;848;48.354;10.064;2022-11-20T02:36:22;9.48;;;3.05;;
1701;SDS011;848;48.354;10.064;2022-11-20T02:38:52;8.45;;;2.75;;
1701;SDS011;848;48.354;10.064;2022-11-20T02:41:20;11.20;;;2.70;;
1701;SDS011;848;48.354;10.064;2022-11-20T02:43:48;8.15;;;2.58;;
1701;SDS011;848;48.354;10.064;2022-11-20T02:46:14;10.05;;;3.40;;
1701;SDS011;848;48.354;10.064;2022-11-20T02:48:41;11.55;;;2.55;;
1701;SDS011;848;48.354;10.064;2022-11-20T02:51:08;9.45;;;3.08;;
1701;SDS011;848;48.354;10.064;2022-11-20T02:53:35;9.18;;;2.78;;
1701;SDS011;848;48.354;10.064;2022-11-20T02:56:02;8.18;;;2.95;;
1701;SDS011;848;48.354;10.064;2022-11-20T02:58:31;9.18;;;2.95;;
1701;SDS011;848;48.354;10.064;2022-11-20T03:00:58;8.32;;;2.67;;
1701;SDS011;848;48.354;10.064;2022-11-20T03:03:24;9.05;;;3.17;;
1701;SDS011;848;48.354;10.064;2022-11-20T03:05:51;8.60;;;2.40;;
1701;SDS011;848;48.354;10.064;2022-11-20T03:08:18;9.10;;;2.72;;
1701;SDS011;848;48.354;10.064;2022-11-20T03:10:45;10.95;;;2.72;;
1701;SDS011;848;48.354;10.064;2022-11-20T03:13:13;9.32;;;3.05;;
1701;SDS011;848;48.354;10.064;2022-11-20T03:15:41;7.63;;;2.50;;
1701;SDS011;848;48.354;10.064;2022-11-20T03:18:08;8.90;;;3.08;;
1701;SDS011;848;48.354;10.064;2022-11-20T03:20:34;8.95;;;3.13;;
1701;SDS011;848;48.354;10.064;2022-11-20T03:23:02;8.55;;;2.58;;
1701;SDS011;848;48.354;10.064;2022-11-20T03:25:29;8.80;;;2.45;;
1701;SDS011;848;48.354;10.064;2022-11-20T03:27:57;7.82;;;2.45;;
1701;SDS011;848;48.354;10.064;2022-11-20T03:30:24;8.10;;;2.60;;
1701;SDS011;848;48.354;10.064;2022-11-20T03:32:54;7.60;;;2.30;;
1701;SDS011;848;48.354;10.064;2022-11-20T03:35:21;11.05;;;2.85;;
1701;SDS011;848;48.354;10.064;2022-11-20T03:37:47;10.25;;;3.85;;
1701;SDS011;848;48.354;10.064;2022-11-20T03:40:14;9.50;;;2.90;;
1701;SDS011;848;48.354;10.064;2022-11-20T03:42:45;8.50;;;3.38;;
1701;SDS011;848;48.354;10.064;2022-11-20T03:45:13;9.50;;;3.20;;
1701;SDS011;848;48.354;10.064;2022-11-20T03:47:40;11.68;;;3.28;;
1701;SDS011;848;48.354;10.064;2022-11-20T03:50:09;8.63;;;3.13;;
1701;SDS011;848;48.354;10.064;2022-11-20T03:52:38;8.70;;;3.05;;
1701;SDS011;848;48.354;10.064;2022-11-20T03:55:05;8.75;;;3.25;;
1701;SDS011;848;48.354;10.064;2022-11-20T03:57:32;9.07;;;2.88;;
1701;SDS011;848;48.354;10.064;2022-11-20T03:59:59;8.50;;;3.10;;
1701;SDS011;848;48.354;10.064;2022-11-20T04:02:26;8.38;;;2.55;;
1701;SDS011;848;48.354;10.064;2022-11-20T04:04:53;9.73;;;2.88;;
1701;SDS011;848;48.354;10.064;2022-11-20T04:07:21;8.48;;;2.67;;
1701;SDS011;848;48.354;10.064;2022-11-20T04:09:48;10.45;;;2.97;;
1701;SDS011;848;48.354;10.064;2022-11-20T04:12:15;9.38;;;2.90;;
1701;SDS011;848;48.354;10.064;2022-11-20T04:14:42;11.50;;;3.35;;
1701;SDS011;848;48.354;10.064;2022-11-20T04:17:09;9.73;;;3.35;;
1701;SDS011;848;48.354;10.064;2022-11-20T04:19:36;10.70;;;3.58;;
1701;SDS011;848;48.354;10.064;2022-11-20T04:22:03;10.25;;;3.63;;
1701;SDS011;848;48.354;10.064;2022-11-20T04:24:31;8.43;;;3.35;;
1701;SDS011;848;48.354;10.064;2022-11-20T04:26:58;8.55;;;3.10;;
1701;SDS011;848;48.354;10.064;2022-11-20T04:29:25;9.00;;;3.65;;
1701;SDS011;848;48.354;10.064;2022-11-20T04:31:51;10.05;;;3.10;;
1701;SDS011;848;48.354;10.064;2022-11-20T04:34:18;10.13;;;4.07;;
1701;SDS011;848;48.354;10.064;2022-11-20T04:36:45;9.80;;;3.42;;
1701;SDS011;848;48.354;10.064;2022-11-20T04:39:13;9.65;;;3.15;;
1701;SDS011;848;48.354;10.064;2022-11-20T04:41:42;9.82;;;3.72;;
1701;SDS011;848;48.354;10.064;2022-11-20T04:44:09;12.50;;;3.88;;
1701;SDS011;848;48.354;10.064;2022-11-20T04:46:37;9.43;;;3.42;;
1701;SDS011;848;48.354;10.064;2022-11-20T04:49:05;9.45;;;3.90;;
1701;SDS011;848;48.354;10.064;2022-11-20T04:51:33;9.60;;;3.78;;
1701;SDS011;848;48.354;10.064;2022-11-20T04:54:00;11.00;;;4.50;;
1701;SDS011;848;48.354;10.064;2022-11-20T04:56:27;10.25;;;4.25;;
1701;SDS011;848;48.354;10.064;2022-11-20T04:58:56;10.90;;;4.30;;
1701;SDS011;848;48.354;10.064;2022-11-20T05:01:26;10.88;;;4.00;;
1701;SDS011;848;48.354;10.064;2022-11-20T05:03:54;10.35;;;3.97;;
1701;SDS011;848;48.354;10.064;2022-11-20T05:06:21;11.30;;;4.25;;
1701;SDS011;848;48.354;10.064;2022-11-20T05:08:48;10.32;;;4.57;;
1701;SDS011;848;48.354;10.064;2022-11-20T05:11:16;10.73;;;5.18;;
1701;SDS011;848;48.354;10.064;2022-11-20T05:13:44;11.32;;;4.72;;
1701;SDS011;848;48.354;10.064;2022-11-20T05:16:14;12.82;;;5.57;;
1701;SDS011;848;48.354;10.064;2022-11-20T05:18:42;11.73;;;4.70;;
1701;SDS011;848;48.354;10.064;2022-11-20T05:21:09;12.10;;;5.68;;
1701;SDS011;848;48.354;10.064;2022-11-20T05:23:37;13.30;;;5.70;;
1701;SDS011;848;48.354;10.064;2022-11-20T05:26:05;13.40;;;6.15;;
1701;SDS011;848;48.354;10.064;2022-11-20T05:28:33;10.80;;;5.00;;
1701;SDS011;848;48.354;10.064;2022-11-20T05:31:04;10.73;;;4.47;;
1701;SDS011;848;48.354;10.064;2022-11-20T05:33:36;12.20;;;4.95;;
1701;SDS011;848;48.354;10.064;2022-11-20T05:36:06;12.50;;;5.40;;
1701;SDS011;848;48.354;10.064;2022-11-20T05:38:34;12.45;;;5.90;;
1701;SDS011;848;48.354;10.064;2022-11-20T05:41:04;11.98;;;5.20;;
1701;SDS011;848;48.354;10.064;2022-11-20T05:43:32;15.15;;;5.32;;
1701;SDS011;848;48.354;10.064;2022-11-20T05:46:03;12.35;;;5.28;;
1701;SDS011;848;48.354;10.064;2022-11-20T05:48:31;19.10;;;5.90;;
1701;SDS011;848;48.354;10.064;2022-11-20T05:51:00;12.10;;;5.60;;
1701;SDS011;848;48.354;10.064;2022-11-20T05:53:29;12.38;;;4.35;;
1701;SDS011;848;48.354;10.064;2022-11-20T05:55:57;13.70;;;4.82;;
1701;SDS011;848;48.354;10.064;2022-11-20T05:58:24;10.57;;;4.70;;
1701;SDS011;848;48.354;10.064;2022-11-20T06:00:51;13.07;;;5.55;;
1701;SDS011;848;48.354;10.064;2022-11-20T06:03:18;25.50;;;5.53;;
1701;SDS011;848;48.354;10.064;2022-11-20T06:05:45;10.30;;;4.90;;
1701;SDS011;848;48.354;10.064;2022-11-20T06:08:13;10.93;;;4.75;;
1701;SDS011;848;48.354;10.064;2022-11-20T06:10:40;12.10;;;5.60;;
1701;SDS011;848;48.354;10.064;2022-11-20T06:13:07;9.50;;;4.15;;
1701;SDS011;848;48.354;10.064;2022-11-20T06:15:34;10.48;;;4.20;;
1701;SDS011;848;48.354;10.064;2022-11-20T06:18:01;12.10;;;4.90;;
1701;SDS011;848;48.354;10.064;2022-11-20T06:20:28;10.63;;;4.63;;
1701;SDS011;848;48.354;10.064;2022-11-20T06:22:54;10.63;;;4.35;;
1701;SDS011;848;48.354;10.064;2022-11-20T06:25:23;11.55;;;4.60;;
1701;SDS011;848;48.354;10.064;2022-11-20T06:27:50;10.68;;;4.78;;
1701;SDS011;848;48.354;10.064;2022-11-20T06:30:17;13.25;;;4.60;;
1701;SDS011;848;48.354;10.064;2022-11-20T06:32:43;12.18;;;5.88;;
1701;SDS011;848;48.354;10.064;2022-11-20T06:35:10;11.23;;;4.45;;
1701;SDS011;848;48.354;10.064;2022-11-20T06:37:37;11.30;;;4.75;;
1701;SDS011;848;48.354;10.064;2022-11-20T06:40:05;15.10;;;4.40;;
1701;SDS011;848;48.354;10.064;2022-11-20T06:42:34;10.65;;;3.92;;
1701;SDS011;848;48.354;10.064;2022-11-20T06:45:01;11.65;;;4.55;;
1701;SDS011;848;48.354;10.064;2022-11-20T06:47:27;13.57;;;5.55;;
1701;SDS011;848;48.354;10.064;2022-11-20T06:49:54;9.75;;;3.92;;
1701;SDS011;848;48.354;10.064;2022-11-20T06:52:21;10.85;;;4.18;;
1701;SDS011;848;48.354;10.064;2022-11-20T06:54:48;11.52;;;4.45;;
1701;SDS011;848;48.354;10.064;2022-11-20T06:57:17;10.85;;;4.10;;
1701;SDS011;848;48.354;10.064;2022-11-20T06:59:46;10.00;;;4.20;;
1701;SDS011;848;48.354;10.064;2022-11-20T07:02:13;9.88;;;3.70;;
1701;SDS011;848;48.354;10.064;2022-11-20T07:04:40;9.52;;;4.07;;
1701;SDS011;848;48.354;10.064;2022-11-20T07:07:07;9.27;;;3.65;;
1701;SDS011;848;48.354;10.064;2022-11-20T07:09:35;11.98;;;3.97;;
1701;SDS011;848;48.354;10.064;2022-11-20T07:12:01;10.98;;;4.22;;
1701;SDS011;848;48.354;10.064;2022-11-20T07:14:31;9.38;;;4.10;;
1701;SDS011;848;48.354;10.064;2022-11-20T07:16:59;10.60;;;4.40;;
1701;SDS011;848;48.354;10.064;2022-11-20T07:19:26;8.73;;;3.13;;
1701;SDS011;848;48.354;10.064;2022-11-20T07:21:53;9.60;;;3.70;;
1701;SDS011;848;48.354;10.064;2022-11-20T07:24:20;8.60;;;3.78;;
1701;SDS011;848;48.354;10.064;2022-11-20T07:26:47;8.75;;;3.72;;
1701;SDS011;848;48.354;10.064;2022-11-20T07:29:17;8.93;;;3.25;;
1701;SDS011;848;48.354;10.064;2022-11-20T07:31:44;8.50;;;3.47;;
1701;SDS011;848;48.354;10.064;2022-11-20T07:34:12;11.25;;;4.40;;
1701;SDS011;848;48.354;10.064;2022-11-20T07:36:39;11.70;;;4.80;;
1701;SDS011;848;48.354;10.064;2022-11-20T07:39:06;9.18;;;3.55;;
1701;SDS011;848;48.354;10.064;2022-11-20T07:41:33;11.32;;;4.72;;
1701;SDS011;848;48.354;10.064;2022-11-20T07:43:59;10.50;;;4.25;;
1701;SDS011;848;48.354;10.064;2022-11-20T07:46:28;11.85;;;3.95;;
1701;SDS011;848;48.354;10.064;2022-11-20T07:48:55;11.63;;;3.95;;
1701;SDS011;848;48.354;10.064;2022-11-20T07:51:24;15.70;;;7.10;;
1701;SDS011;848;48.354;10.064;2022-11-20T07:53:52;9.70;;;3.75;;
1701;SDS011;848;48.354;10.064;2022-11-20T07:56:19;9.80;;;4.25;;
1701;SDS011;848;48.354;10.064;2022-11-20T07:58:46;9.80;;;3.90;;
1701;SDS011;848;48.354;10.064;2022-11-20T08:01:13;9.10;;;3.47;;
1701;SDS011;848;48.354;10.064;2022-11-20T08:03:42;9.00;;;3.15;;
1701;SDS011;848;48.354;10.064;2022-11-20T08:06:09;10.10;;;4.25;;
1701;SDS011;848;48.354;10.064;2022-11-20T08:08:45;8.95;;;3.67;;
1701;SDS011;848;48.354;10.064;2022-11-20T08:11:24;11.02;;;4.28;;
1701;SDS011;848;48.354;10.064;2022-11-20T08:14:08;8.50;;;3.50;;
1701;SDS011;848;48.354;10.064;2022-11-20T08:16:38;12.80;;;4.32;;
1701;SDS011;848;48.354;10.064;2022-11-20T08:19:05;8.75;;;3.42;;
1701;SDS011;848;48.354;10.064;2022-11-20T08:21:32;10.50;;;3.22;;
1701;SDS011;848;48.354;10.064;2022-11-20T08:24:01;9.50;;;3.65;;
1701;SDS011;848;48.354;10.064;2022-11-20T08:26:28;8.18;;;3.50;;
1701;SDS011;848;48.354;10.064;2022-11-20T08:28:55;8.45;;;3.55;;
1701;SDS011;848;48.354;10.064;2022-11-20T08:31:23;11.80;;;3.85;;
1701;SDS011;848;48.354;10.064;2022-11-20T08:33:52;10.07;;;3.97;;
1701;SDS011;848;48.354;10.064;2022-11-20T08:36:19;10.35;;;3.60;;
1701;SDS011;848;48.354;10.064;2022-11-20T08:38:47;9.10;;;3.15;;
1701;SDS011;848;48.354;10.064;2022-11-20T08:41:16;9.98;;;3.67;;
1701;SDS011;848;48.354;10.064;2022-11-20T08:43:53;8.25;;;2.83;;
1701;SDS011;848;48.354;10.064;2022-11-20T08:46:22;9.55;;;3.65;;
1701;SDS011;848;48.354;10.064;2022-11-20T08:48:50;10.50;;;3.38;;
1701;SDS011;848;48.354;10.064;2022-11-20T08:51:17;11.00;;;4.03;;
1701;SDS011;848;48.354;10.064;2022-11-20T08:53:45;9.40;;;3.20;;
1701;SDS011;848;48.354;10.064;2022-11-20T08:56:13;9.55;;;3.50;;
1701;SDS011;848;48.354;10.064;2022-11-20T08:58:42;7.60;;;2.63;;
1701;SDS011;848;48.354;10.064;2022-11-20T09:01:12;8.15;;;2.50;;
1701;SDS011;848;48.354;10.064;2022-11-20T09:03:42;12.13;;;3.15;;
1701;SDS011;848;48.354;10.064;2022-11-20T09:06:11;8.40;;;3.20;;
1701;SDS011;848;48.354;10.064;2022-11-20T09:08:38;7.55;;;2.67;;
1701;SDS011;848;48.354;10.064;2022-11-20T09:11:05;8.35;;;2.65;;
1701;SDS011;848;48.354;10.064;2022-11-20T09:13:33;9.80;;;3.10;;
1701;SDS011;848;48.354;10.064;2022-11-20T09:16:03;10.95;;;2.85;;
1701;SDS011;848;48.354;10.064;2022-11-20T09:18:33;7.30;;;2.03;;
1701;SDS011;848;48.354;10.064;2022-11-20T09:21:03;7.05;;;2.40;;
1701;SDS011;848;48.354;10.064;2022-11-20T09:23:32;7.15;;;2.25;;
1701;SDS011;848;48.354;10.064;2022-11-20T09:26:01;7.30;;;2.08;;
1701;SDS011;848;48.354;10.064;2022-11-20T09:28:29;11.25;;;2.33;;
1701;SDS011;848;48.354;10.064;2022-11-20T09:30:56;7.60;;;2.42;;
1701;SDS011;848;48.354;10.064;2022-11-20T09:33:24;7.55;;;2.30;;
1701;SDS011;848;48.354;10.064;2022-11-20T09:35:51;8.85;;;2.33;;
1701;SDS011;848;48.354;10.064;2022-11-20T09:38:18;7.43;;;2.05;;
1701;SDS011;848;48.354;10.064;2022-11-20T09:40:47;8.70;;;2.40;;
1701;SDS011;848;48.354;10.064;2022-11-20T09:43:21;6.85;;;1.80;;
1701;SDS011;848;48.354;10.064;2022-11-20T09:45:56;7.55;;;2.33;;
1701;SDS011;848;48.354;10.064;2022-11-20T09:48:39;7.30;;;1.95;;
1701;SDS011;848;48.354;10.064;2022-11-20T09:51:17;7.78;;;1.70;;
1701;SDS011;848;48.354;10.064;2022-11-20T09:53:56;8.63;;;2.00;;
1701;SDS011;848;48.354;10.064;2022-11-20T09:56:33;7.05;;;1.77;;
1701;SDS011;848;48.354;10.064;2022-11-20T09:59:04;7.07;;;2.22;;
1701;SDS011;848;48.354;10.064;2022-11-20T10:01:36;6.78;;;1.90;;
1701;SDS011;848;48.354;10.064;2022-11-20T10:04:09;6.65;;;1.65;;
1701;SDS011;848;48.354;10.064;2022-11-20T10:06:41;7.15;;;1.85;;
1701;SDS011;848;48.354;10.064;2022-11-20T10:09:16;7.20;;;2.10;;
1701;SDS011;848;48.354;10.064;2022-11-20T10:11:51;7.68;;;1.70;;
1701;SDS011;848;48.354;10.064;2022-11-20T10:14:31;7.15;;;2.08;;
1701;SDS011;848;48.354;10.064;2022-11-20T10:17:09;8.57;;;1.80;;
1701;SDS011;848;48.354;10.064;2022-11-20T10:19:50;6.25;;;1.45;;
1701;SDS011;848;48.354;10.064;2022-11-20T10:22:33;7.00;;;1.50;;
1701;SDS011;848;48.354;10.064;2022-11-20T10:25:13;6.53;;;1.58;;
1701;SDS011;848;48.354;10.064;2022-11-20T10:27:48;10.40;;;1.70;;
1701;SDS011;848;48.354;10.064;2022-11-20T10:30:31;6.72;;;1.67;;
1701;SDS011;848;48.354;10.064;2022-11-20T10:33:05;6.30;;;1.60;;
1701;SDS011;848;48.354;10.064;2022-11-20T10:35:41;16.77;;;3.28;;
1701;SDS011;848;48.354;10.064;2022-11-20T10:38:13;6.80;;;1.88;;
1701;SDS011;848;48.354;10.064;2022-11-20T10:40:45;6.85;;;1.52;;
1701;SDS011;848;48.354;10.064;2022-11-20T10:43:16;6.63;;;1.35;;
1701;SDS011;848;48.354;10.064;2022-11-20T10:45:50;6.97;;;1.60;;
1701;SDS011;848;48.354;10.064;2022-11-20T10:48:21;8.60;;;1.77;;
1701;SDS011;848;48.354;10.064;2022-11-20T10:50:57;6.97;;;1.85;;
1701;SDS011;848;48.354;10.064;2022-11-20T10:53:53;6.60;;;1.98;;
1701;SDS011;848;48.354;10.064;2022-11-20T10:56:25;6.35;;;1.30;;
1701;SDS011;848;48.354;10.064;2022-11-20T10:59:03;6.53;;;1.40;;
1701;SDS011;848;48.354;10.064;2022-11-20T11:01:45;6.53;;;1.40;;
1701;SDS011;848;48.354;10.064;2022-11-20T11:04:16;6.35;;;1.58;;
1701;SDS011;848;48.354;10.064;2022-11-20T11:06:57;6.60;;;1.38;;
1701;SDS011;848;48.354;10.064;2022-11-20T11:09:32;7.80;;;1.27;;
1701;SDS011;848;48.354;10.064;2022-11-20T11:12:05;6.00;;;1.10;;
1701;SDS011;848;48.354;10.064;2022-11-20T11:14:41;5.82;;;1.10;;
1701;SDS011;848;48.354;10.064;2022-11-20T11:17:18;7.18;;;1.52;;
1701;SDS011;848;48.354;10.064;2022-11-20T11:20:14;6.25;;;1.20;;
1701;SDS011;848;48.354;10.064;2022-11-20T11:22:45;9.40;;;1.88;;
1701;SDS011;848;48.354;10.064;2022-11-20T11:25:21;6.15;;;1.45;;
1701;SDS011;848;48.354;10.064;2022-11-20T11:27:50;6.38;;;1.33;;
1701;SDS011;848;48.354;10.064;2022-11-20T11:30:18;6.80;;;1.50;;
1701;SDS011;848;48.354;10.064;2022-11-20T11:32:46;5.88;;;1.23;;
1701;SDS011;848;48.354;10.064;2022-11-20T11:35:20;6.25;;;1.45;;
1701;SDS011;848;48.354;10.064;2022-11-20T11:37:50;6.45;;;1.45;;
1701;SDS011;848;48.354;10.064;2022-11-20T11:40:20;7.65;;;1.90;;
1701;SDS011;848;48.354;10.064;2022-11-20T11:42:51;7.50;;;2.20;;
1701;SDS011;848;48.354;10.064;2022-11-20T11:45:22;6.20;;;1.25;;
1701;SDS011;848;48.354;10.064;2022-11-20T11:47:49;5.90;;;1.30;;
1701;SDS011;848;48.354;10.064;2022-11-20T11:50:19;5.88;;;1.25;;
1701;SDS011;848;48.354;10.064;2022-11-20T11:52:54;6.82;;;1.50;;
1701;SDS011;848;48.354;10.064;2022-11-20T11:55:31;6.85;;;1.83;;
1701;SDS011;848;48.354;10.064;2022-11-20T12:00:58;6.57;;;1.40;;
1701;SDS011;848;48.354;10.064;2022-11-20T12:03:32;6.85;;;1.50;;
1701;SDS011;848;48.354;10.064;2022-11-20T12:06:03;6.45;;;1.73;;
1701;SDS011;848;48.354;10.064;2022-11-20T12:08:39;6.63;;;1.58;;
1701;SDS011;848;48.354;10.064;2022-11-20T12:11:11;6.72;;;1.70;;
1701;SDS011;848;48.354;10.064;2022-11-20T12:13:42;6.88;;;1.55;;
1701;SDS011;848;48.354;10.064;2022-11-20T12:16:13;6.20;;;1.70;;
1701;SDS011;848;48.354;10.064;2022-11-20T12:18:43;9.30;;;3.40;;
1701;SDS011;848;48.354;10.064;2022-11-20T12:21:22;7.72;;;1.48;;
1701;SDS011;848;48.354;10.064;2022-11-20T12:24:00;7.85;;;1.50;;
1701;SDS011;848;48.354;10.064;2022-11-20T12:26:47;5.95;;;1.45;;
1701;SDS011;848;48.354;10.064;2022-11-20T12:29:26;6.30;;;2.03;;
1701;SDS011;848;48.354;10.064;2022-11-20T12:32:10;5.90;;;1.50;;
1701;SDS011;848;48.354;10.064;2022-11-20T12:34:59;7.15;;;1.75;;
1701;SDS011;848;48.354;10.064;2022-11-20T12:37:33;6.00;;;1.30;;
1701;SDS011;848;48.354;10.064;2022-11-20T12:40:17;6.40;;;1.48;;
1701;SDS011;848;48.354;10.064;2022-11-20T12:42:56;6.32;;;1.30;;
1701;SDS011;848;48.354;10.064;2022-11-20T12:48:52;6.35;;;1.30;;
1701;SDS011;848;48.354;10.064;2022-11-20T12:51:43;6.00;;;1.27;;
1701;SDS011;848;48.354;10.064;2022-11-20T12:54:29;6.38;;;1.85;;
1701;SDS011;848;48.354;10.064;2022-11-20T12:57:15;6.82;;;1.55;;
1701;SDS011;848;48.354;10.064;2022-11-20T13:02:38;6.45;;;1.50;;
1701;SDS011;848;48.354;10.064;2022-11-20T13:05:27;5.80;;;1.05;;
1701;SDS011;848;48.354;10.064;2022-11-20T13:08:00;6.30;;;1.10;;
1701;SDS011;848;48.354;10.064;2022-11-20T13:10:31;5.75;;;1.17;;
1701;SDS011;848;48.354;10.064;2022-11-20T13:13:10;5.80;;;1.05;;
1701;SDS011;848;48.354;10.064;2022-11-20T13:15:44;9.00;;;1.70;;
1701;SDS011;848;48.354;10.064;2022-11-20T13:18:16;6.43;;;1.15;;
1701;SDS011;848;48.354;10.064;2022-11-20T13:20:44;5.80;;;1.10;;
1701;SDS011;848;48.354;10.064;2022-11-20T13:23:22;7.35;;;1.02;;
1701;SDS011;848;48.354;10.064;2022-11-20T13:26:02;6.07;;;1.17;;
1701;SDS011;848;48.354;10.064;2022-11-20T13:28:32;7.53;;;1.52;;
1701;SDS011;848;48.354;10.064;2022-11-20T13:31:01;5.95;;;1.00;;
1701;SDS011;848;48.354;10.064;2022-11-20T13:33:29;5.30;;;0.80;;
1701;SDS011;848;48.354;10.064;2022-11-20T13:35:59;5.45;;;0.70;;
1701;SDS011;848;48.354;10.064;2022-11-20T13:38:27;5.50;;;0.73;;
1701;SDS011;848;48.354;10.064;2022-11-20T13:41:07;6.90;;;0.80;;
1701;SDS011;848;48.354;10.064;2022-11-20T13:43:51;5.60;;;0.75;;
1701;SDS011;848;48.354;10.064;2022-11-20T13:46:20;6.18;;;0.93;;
1701;SDS011;848;48.354;10.064;2022-11-20T13:48:49;5.35;;;0.95;;
1701;SDS011;848;48.354;10.064;2022-11-20T13:51:26;5.40;;;0.70;;
1701;SDS011;848;48.354;10.064;2022-11-20T13:57:07;5.80;;;1.05;;
1701;SDS011;848;48.354;10.064;2022-11-20T13:59:52;6.90;;;1.00;;
1701;SDS011;848;48.354;10.064;2022-11-20T14:02:25;5.50;;;0.95;;
1701;SDS011;848;48.354;10.064;2022-11-20T14:04:54;5.53;;;0.88;;
1701;SDS011;848;48.354;10.064;2022-11-20T14:07:25;9.02;;;1.20;;
1701;SDS011;848;48.354;10.064;2022-11-20T14:09:59;7.63;;;0.90;;
1701;SDS011;848;48.354;10.064;2022-11-20T14:12:27;6.95;;;0.90;;
1701;SDS011;848;48.354;10.064;2022-11-20T14:14:57;12.27;;;5.70;;
1701;SDS011;848;48.354;10.064;2022-11-20T14:17:28;6.85;;;1.77;;
1701;SDS011;848;48.354;10.064;2022-11-20T14:19:59;9.80;;;2.35;;
1701;SDS011;848;48.354;10.064;2022-11-20T14:22:29;7.47;;;1.90;;
1701;SDS011;848;48.354;10.064;2022-11-20T14:25:04;11.50;;;4.68;;
1701;SDS011;848;48.354;10.064;2022-11-20T14:27:33;7.22;;;1.63;;
1701;SDS011;848;48.354;10.064;2022-11-20T14:30:04;5.90;;;1.50;;
1701;SDS011;848;48.354;10.064;2022-11-20T14:32:32;6.53;;;1.20;;
1701;SDS011;848;48.354;10.064;2022-11-20T14:35:02;7.90;;;1.40;;
1701;SDS011;848;48.354;10.064;2022-11-20T14:37:37;8.23;;;1.90;;
1701;SDS011;848;48.354;10.064;2022-11-20T14:40:24;10.18;;;3.42;;
1701;SDS011;848;48.354;10.064;2022-11-20T14:43:20;6.50;;;1.60;;
1701;SDS011;848;48.354;10.064;2022-11-20T14:45:54;13.98;;;4.88;;
1701;SDS011;848;48.354;10.064;2022-11-20T14:48:25;7.90;;;2.35;;
1701;SDS011;848;48.354;10.064;2022-11-20T14:50:56;7.93;;;1.65;;
1701;SDS011;848;48.354;10.064;2022-11-20T14:53:23;6.70;;;1.73;;
1701;SDS011;848;48.354;10.064;2022-11-20T14:55:54;6.90;;;1.40;;
1701;SDS011;848;48.354;10.064;2022-11-20T14:58:24;8.05;;;1.80;;
1701;SDS011;848;48.354;10.064;2022-11-20T15:00:58;9.70;;;2.05;;
1701;SDS011;848;48.354;10.064;2022-11-20T15:03:33;7.95;;;1.73;;
1701;SDS011;848;48.354;10.064;2022-11-20T15:06:01;7.53;;;1.45;;
1701;SDS011;848;48.354;10.064;2022-11-20T15:08:28;8.68;;;1.50;;
1701;SDS011;848;48.354;10.064;2022-11-20T15:10:55;7.20;;;1.30;;
1701;SDS011;848;48.354;10.064;2022-11-20T15:13:24;6.13;;;1.40;;
1701;SDS011;848;48.354;10.064;2022-11-20T15:15:57;8.27;;;1.90;;
1701;SDS011;848;48.354;10.064;2022-11-20T15:18:26;5.57;;;1.20;;
1701;SDS011;848;48.354;10.064;2022-11-20T15:20:55;6.50;;;1.55;;
1701;SDS011;848;48.354;10.064;2022-11-20T15:23:26;7.03;;;1.50;;
1701;SDS011;848;48.354;10.064;2022-11-20T15:25:53;6.85;;;1.50;;
1701;SDS011;848;48.354;10.064;2022-11-20T15:28:21;7.32;;;1.40;;
1701;SDS011;848;48.354;10.064;2022-11-20T15:30:50;6.10;;;1.13;;
1701;SDS011;848;48.354;10.064;2022-11-20T15:33:19;7.43;;;1.67;;
1701;SDS011;848;48.354;10.064;2022-11-20T15:35:46;6.07;;;1.40;;
1701;SDS011;848;48.354;10.064;2022-11-20T15:38:12;5.90;;;1.10;;
1701;SDS011;848;48.354;10.064;2022-11-20T15:40:40;6.63;;;1.05;;
1701;SDS011;848;48.354;10.064;2022-11-20T15:43:07;8.15;;;1.20;;
1701;SDS011;848;48.354;10.064;2022-11-20T15:45:36;6.68;;;1.45;;